Upstream stations:
Downstream station:
SHEF ID: WRWO2 Deep Fork at Warwick, OK
STATION TYPE:
Regulating: Stage = 19.00, Flow = 7406
STAGE RIV-FLOW BAT-LOAD
ft cfs volt
Ccp-Rev Ccp-Rev Ccp-Rev
(US/Central)
03/05 00:00 4.55 37 12.86
03/05 01:00 4.55 37 12.84
03/05 02:00 4.55 37 12.83
03/05 03:00 4.54 36 12.82
03/05 04:00 4.55 37 12.80
03/05 05:00 4.54 36 12.80
03/05 06:00 4.54 36 12.77
03/05 07:00 4.55 37 12.77
03/05 08:00 4.55 37 12.76
03/05 09:00 4.55 37 12.90
03/05 10:00 4.54 36 13.28
03/05 11:00 4.55 37 13.60
03/05 12:00 4.55 37 13.69
03/05 13:00 4.56 38 13.51
03/05 14:00 4.58 40 13.47
03/05 15:00 4.56 38 13.49
03/05 16:00 4.56 38 13.46
03/05 17:00 4.57 39 13.44
03/05 18:00 4.57 39 13.36
03/05 19:00 4.57 39 13.09
03/05 20:00 4.56 38 12.96
03/05 21:00 4.56 38 12.92
03/05 22:00 4.55 37 12.88
03/05 23:00 4.58 40 12.86